Time;durP1;ratioP1;P1;durP2;ratioP2;P2;SDS_P1;SDS_P2;PMS_P1;PMS_P2;Temp;Humidity;BMP_temperature;BMP_pressure;BME280_temperature;BME280_humidity;BME280_pressure;Samples;Min_cycle;Max_cycle;Signal;HPM_P1;HPM_P2
2023/05/25 00:01:53;;;;;;;14.27;6.00;;;8.80;99.90;;;;;;4857116;29;20036;-79
2023/05/25 00:04:20;;;;;;;13.38;5.70;;;8.70;99.90;;;;;;4829711;29;20125;-79
2023/05/25 00:06:46;;;;;;;15.30;6.10;;;8.70;99.90;;;;;;4857082;29;20049;-79
2023/05/25 00:09:12;;;;;;;20.77;7.50;;;8.70;99.90;;;;;;4850523;29;20040;-79
2023/05/25 00:11:38;;;;;;;14.87;7.33;;;8.80;99.90;;;;;;4878617;29;20401;-79
2023/05/25 00:14:04;;;;;;;14.77;6.70;;;8.90;99.90;;;;;;4883066;29;20120;-79
2023/05/25 00:16:30;;;;;;;16.83;7.00;;;8.90;99.90;;;;;;4873177;29;20052;-79
2023/05/25 00:18:56;;;;;;;12.57;6.13;;;8.90;99.90;;;;;;4888090;29;20441;-79
2023/05/25 00:21:24;;;;;;;16.00;7.00;;;8.90;99.90;;;;;;4847309;29;20045;-79
2023/05/25 00:23:50;;;;;;;12.50;5.47;;;8.90;99.90;;;;;;4869591;29;20045;-79
2023/05/25 00:26:16;;;;;;;15.80;6.03;;;8.90;99.90;;;;;;4847921;29;20106;-79
2023/05/25 00:28:41;;;;;;;11.73;5.50;;;8.80;99.90;;;;;;4853620;29;20048;-79
2023/05/25 00:31:13;;;;;;;10.00;5.37;;;8.70;99.90;;;;;;4880325;29;20045;-85
2023/05/25 00:33:51;;;;;;;13.30;6.20;;;8.70;99.90;;;;;;4884776;29;20132;-85
2023/05/25 00:36:26;;;;;;;14.73;5.60;;;8.70;99.90;;;;;;4866814;29;20045;-86
2023/05/25 00:38:55;;;;;;;16.63;7.43;;;8.60;99.90;;;;;;4859501;29;20104;-86
2023/05/25 00:41:33;;;;;;;16.53;7.33;;;8.60;99.90;;;;;;4862231;29;20049;-85
2023/05/25 00:47:18;;;;;;;13.60;6.57;;;8.70;99.90;;;;;;4867640;29;20131;-85
2023/05/25 00:49:47;;;;;;;20.50;7.00;;;8.70;99.90;;;;;;4843542;29;20393;-85
2023/05/25 00:52:17;;;;;;;18.93;7.53;;;8.60;99.90;;;;;;4845331;29;20073;-85
2023/05/25 00:55:21;;;;;;;17.13;8.27;;;8.50;99.90;;;;;;4854779;29;20040;-85
2023/05/25 00:58:01;;;;;;;15.97;7.30;;;8.60;99.90;;;;;;4873781;29;20132;-85
2023/05/25 01:00:57;;;;;;;16.37;6.90;;;8.50;99.90;;;;;;4859927;29;20120;-85
2023/05/25 01:03:36;;;;;;;16.37;6.57;;;8.40;99.90;;;;;;4838316;29;20045;-86
2023/05/25 01:06:14;;;;;;;15.77;6.63;;;8.40;99.90;;;;;;4858983;29;20544;-85
2023/05/25 01:08:46;;;;;;;13.30;6.70;;;8.40;99.90;;;;;;4828075;29;20045;-79
2023/05/25 01:11:35;;;;;;;17.83;6.57;;;8.40;99.90;;;;;;4854955;29;20037;-79
2023/05/25 01:14:05;;;;;;;19.47;7.20;;;8.30;99.90;;;;;;4858587;29;20053;-79
2023/05/25 01:16:37;;;;;;;14.63;6.17;;;8.30;99.90;;;;;;4851341;29;20048;-79
2023/05/25 01:19:06;;;;;;;16.03;6.77;;;8.30;99.90;;;;;;4860217;29;20125;-79
2023/05/25 01:21:55;;;;;;;13.00;6.83;;;8.30;99.90;;;;;;4870203;29;20148;-79
2023/05/25 01:24:33;;;;;;;19.43;6.93;;;8.20;99.90;;;;;;4853352;29;20273;-79
2023/05/25 01:27:08;;;;;;;15.53;6.80;;;8.20;99.90;;;;;;4869829;29;20693;-85
2023/05/25 01:29:35;;;;;;;17.67;7.30;;;8.20;99.90;;;;;;4848044;29;20045;-86
2023/05/25 01:32:03;;;;;;;15.03;6.80;;;8.10;99.90;;;;;;4851011;29;20430;-86
2023/05/25 01:34:30;;;;;;;14.37;7.03;;;8.10;99.90;;;;;;4837949;29;20176;-86
2023/05/25 01:37:12;;;;;;;15.13;7.37;;;8.10;99.90;;;;;;4830998;29;20125;-84
2023/05/25 01:39:40;;;;;;;16.80;6.70;;;8.10;99.90;;;;;;4825738;29;20045;-86
2023/05/25 01:42:05;;;;;;;13.27;6.63;;;8.00;99.90;;;;;;4883277;29;20157;-86
2023/05/25 01:44:31;;;;;;;16.73;6.87;;;8.00;99.90;;;;;;4844779;29;20132;-85
2023/05/25 01:47:21;;;;;;;20.57;8.17;;;8.00;99.90;;;;;;4858184;29;20493;-86
2023/05/25 01:50:22;;;;;;;16.17;7.20;;;8.10;99.90;;;;;;4877552;29;20060;-86
2023/05/25 01:53:05;;;;;;;14.50;6.43;;;8.00;99.90;;;;;;4877719;29;20109;-86
2023/05/25 01:55:44;;;;;;;14.73;6.73;;;8.00;99.90;;;;;;4880159;29;20041;-86
2023/05/25 01:58:15;;;;;;;19.80;6.97;;;8.00;99.90;;;;;;4882672;29;20045;-86
2023/05/25 02:00:42;;;;;;;15.38;7.20;;;8.00;99.90;;;;;;4897497;29;20103;-86
2023/05/25 02:03:09;;;;;;;14.23;7.43;;;7.90;99.90;;;;;;4864504;29;20109;-85
2023/05/25 02:05:38;;;;;;;18.57;7.47;;;7.90;99.90;;;;;;4843779;29;20528;-85
2023/05/25 02:08:05;;;;;;;12.80;7.13;;;7.90;99.90;;;;;;4892338;29;20413;-86
2023/05/25 02:10:31;;;;;;;25.23;8.60;;;7.80;99.90;;;;;;4874625;29;20079;-85
2023/05/25 02:12:59;;;;;;;20.97;8.97;;;7.90;99.90;;;;;;4864156;29;20076;-83
2023/05/25 02:15:35;;;;;;;20.80;9.17;;;7.90;99.90;;;;;;4864217;29;20131;-84
2023/05/25 02:18:53;;;;;;;;;;;;;;;;;;;;;
2023/05/25 02:21:37;;;;;;;19.20;8.40;;;8.00;99.90;;;;;;4866087;29;20109;-86
2023/05/25 02:24:28;;;;;;;20.57;9.23;;;8.10;99.90;;;;;;4864150;29;20040;-84
2023/05/25 02:27:16;;;;;;;21.50;9.67;;;8.10;99.90;;;;;;4866235;29;20041;-83
2023/05/25 02:29:45;;;;;;;17.00;8.30;;;8.10;99.90;;;;;;4881919;29;20044;-84
2023/05/25 02:32:52;;;;;;;24.57;10.77;;;8.20;99.90;;;;;;4869871;29;20131;-86
2023/05/25 02:35:18;;;;;;;22.70;10.70;;;8.30;99.90;;;;;;4880417;29;20041;-85
2023/05/25 02:37:47;;;;;;;17.67;9.43;;;8.30;99.90;;;;;;4874111;29;20041;-86
2023/05/25 02:40:24;;;;;;;19.47;9.60;;;8.30;99.90;;;;;;4863630;29;20051;-84
2023/05/25 02:42:55;;;;;;;20.30;9.67;;;8.30;99.90;;;;;;4860996;29;20045;-85
2023/05/25 02:45:20;;;;;;;23.83;10.20;;;8.30;99.90;;;;;;4879223;29;20409;-86
2023/05/25 02:47:46;;;;;;;22.70;9.93;;;8.30;99.90;;;;;;4848698;29;20045;-85
2023/05/25 02:50:15;;;;;;;21.53;9.87;;;8.30;99.90;;;;;;4850318;29;20080;-85
2023/05/25 02:52:56;;;;;;;21.77;10.90;;;8.30;99.90;;;;;;4853949;29;20048;-85
2023/05/25 02:55:24;;;;;;;22.77;10.10;;;8.40;99.90;;;;;;4858360;29;20672;-85
2023/05/25 02:57:51;;;;;;;16.03;8.60;;;8.40;99.90;;;;;;4853160;29;20505;-86
2023/05/25 03:00:19;;;;;;;18.57;9.10;;;8.40;99.90;;;;;;4851678;29;20493;-85
2023/05/25 03:02:48;;;;;;;21.50;10.07;;;8.30;99.90;;;;;;4848480;29;20104;-85
2023/05/25 03:05:19;;;;;;;22.38;7.88;;;8.30;99.90;;;;;;4848283;29;20045;-85
2023/05/25 03:07:46;;;;;;;18.90;9.83;;;8.30;99.90;;;;;;4856576;29;20037;-85
2023/05/25 03:10:14;;;;;;;18.57;9.03;;;8.30;99.90;;;;;;4852786;29;20386;-85
2023/05/25 03:12:40;;;;;;;26.23;9.93;;;8.30;99.90;;;;;;4838009;29;20045;-86
2023/05/25 03:15:14;;;;;;;19.83;9.03;;;8.20;99.90;;;;;;4833017;29;20141;-85
2023/05/25 03:17:43;;;;;;;17.77;8.93;;;8.20;99.90;;;;;;4848122;29;20049;-85
2023/05/25 03:20:09;;;;;;;23.83;10.30;;;8.10;99.90;;;;;;4832432;29;20128;-85
2023/05/25 03:22:37;;;;;;;23.00;10.03;;;8.10;99.90;;;;;;4848155;29;20041;-85
2023/05/25 03:25:03;;;;;;;21.33;10.93;;;8.20;99.90;;;;;;4871490;29;20169;-79
2023/05/25 03:27:28;;;;;;;20.87;8.93;;;8.20;99.90;;;;;;4879616;29;20158;-79
2023/05/25 03:29:57;;;;;;;18.53;9.10;;;8.20;99.90;;;;;;4839366;29;20503;-79
2023/05/25 03:32:25;;;;;;;21.67;10.53;;;8.10;99.90;;;;;;4861074;29;20091;-80
2023/05/25 03:34:51;;;;;;;17.37;8.90;;;8.10;99.90;;;;;;4878597;29;20049;-79
2023/05/25 03:37:17;;;;;;;19.40;8.73;;;8.10;99.90;;;;;;4880781;29;20045;-80
2023/05/25 03:39:50;;;;;;;22.23;10.03;;;8.10;99.90;;;;;;4848877;29;20112;-85
2023/05/25 03:42:49;;;;;;;21.50;9.67;;;8.10;99.90;;;;;;4871716;29;20136;-85
2023/05/25 03:45:15;;;;;;;15.80;8.43;;;8.10;99.90;;;;;;4865037;29;20047;-85
2023/05/25 03:47:41;;;;;;;18.60;8.60;;;8.20;99.90;;;;;;4878350;29;20183;-85
2023/05/25 03:50:10;;;;;;;16.13;7.93;;;8.10;99.90;;;;;;4862354;29;20135;-85
2023/05/25 03:52:39;;;;;;;16.50;9.20;;;8.10;99.90;;;;;;4862422;29;20081;-85
2023/05/25 03:55:27;;;;;;;18.30;9.20;;;8.00;99.90;;;;;;4850832;29;20438;-85
2023/05/25 03:58:41;;;;;;;16.27;8.47;;;8.10;99.90;;;;;;4868780;29;20131;-85
2023/05/25 04:01:18;;;;;;;;;;;8.10;99.90;;;;;;4870612;29;20192;-84
2023/05/25 04:04:20;;;;;;;21.43;10.40;;;8.20;99.90;;;;;;4857957;29;20008;-84
2023/05/25 04:07:07;;;;;;;22.73;11.03;;;8.20;99.90;;;;;;4791110;29;20540;-85
2023/05/25 04:09:43;;;;;;;19.27;11.00;;;8.40;99.90;;;;;;4842780;29;20501;-85
2023/05/25 04:12:48;;;;;;;27.33;12.33;;;8.50;99.90;;;;;;4830820;29;20056;-85
2023/05/25 04:15:14;;;;;;;24.17;10.63;;;8.50;99.90;;;;;;4846147;29;20052;-83
2023/05/25 04:17:54;;;;;;;22.97;10.97;;;8.60;99.90;;;;;;4842240;29;20042;-83
2023/05/25 04:20:23;;;;;;;22.53;11.03;;;8.60;99.90;;;;;;4844228;29;20049;-85
2023/05/25 04:22:49;;;;;;;23.27;11.23;;;8.70;99.90;;;;;;4836490;29;20455;-84
2023/05/25 04:25:36;;;;;;;23.60;10.97;;;8.80;99.90;;;;;;4851114;29;20056;-83
2023/05/25 04:31:37;;;;;;;21.10;10.57;;;8.90;99.90;;;;;;4835477;29;20057;-84
2023/05/25 04:34:09;;;;;;;27.83;10.77;;;8.90;99.90;;;;;;4851383;29;20139;-85
2023/05/25 04:36:42;;;;;;;19.07;11.07;;;9.00;99.90;;;;;;4877434;29;20045;-85
2023/05/25 04:39:32;;;;;;;24.37;10.60;;;9.00;99.90;;;;;;4863156;29;20128;-84
2023/05/25 04:42:22;;;;;;;24.67;11.50;;;9.10;99.90;;;;;;4868567;29;20048;-84
2023/05/25 04:45:16;;;;;;;20.87;10.23;;;9.10;99.90;;;;;;4872957;29;20057;-85
2023/05/25 04:47:48;;;;;;;20.30;9.33;;;9.10;99.90;;;;;;4861127;29;20060;-83
2023/05/25 04:50:14;;;;;;;20.67;10.53;;;9.20;99.90;;;;;;4876843;29;20052;-85
2023/05/25 04:52:40;;;;;;;21.20;10.43;;;9.30;99.90;;;;;;4876592;29;20049;-83
2023/05/25 04:55:11;;;;;;;24.13;10.70;;;9.40;99.90;;;;;;4862087;29;20429;-83
2023/05/25 04:57:38;;;;;;;19.30;10.17;;;9.40;99.90;;;;;;4886715;29;20053;-83
2023/05/25 05:00:05;;;;;;;23.60;11.40;;;9.50;99.90;;;;;;4882889;29;20737;-83
2023/05/25 05:02:30;;;;;;;21.20;10.90;;;9.60;99.90;;;;;;4877609;29;20128;-84
2023/05/25 05:05:02;;;;;;;22.17;11.00;;;9.70;99.90;;;;;;4861672;29;20475;-84
2023/05/25 05:07:28;;;;;;;18.77;10.15;;;9.80;99.90;;;;;;4875980;29;20041;-82
2023/05/25 05:09:54;;;;;;;23.93;10.37;;;9.90;99.90;;;;;;4859584;29;20045;-81
2023/05/25 05:12:20;;;;;;;23.17;11.17;;;9.90;99.90;;;;;;4879905;29;20042;-82
2023/05/25 05:14:52;;;;;;;19.37;10.80;;;10.10;99.90;;;;;;4881908;29;20400;-82
2023/05/25 05:17:17;;;;;;;20.73;10.00;;;10.20;99.90;;;;;;4864252;29;20053;-81
2023/05/25 05:20:00;;;;;;;18.43;9.73;;;10.30;99.90;;;;;;4889767;29;20036;-81
2023/05/25 05:22:42;;;;;;;26.07;10.97;;;10.40;99.90;;;;;;4864268;29;20110;-81
2023/05/25 05:25:10;;;;;;;21.23;10.27;;;10.40;99.90;;;;;;4870947;29;20050;-80
2023/05/25 05:27:39;;;;;;;24.40;10.80;;;10.50;99.90;;;;;;4863995;29;20051;-80
2023/05/25 05:30:15;;;;;;;21.17;10.60;;;10.60;99.90;;;;;;4867218;29;20037;-81
2023/05/25 05:32:44;;;;;;;19.13;10.57;;;10.70;99.90;;;;;;4866728;29;20063;-80
2023/05/25 05:35:22;;;;;;;21.00;10.33;;;10.80;99.90;;;;;;4856264;29;20076;-81
2023/05/25 05:38:11;;;;;;;21.83;10.53;;;10.90;99.90;;;;;;4878614;29;20538;-80
2023/05/25 05:40:40;;;;;;;19.13;9.67;;;11.10;99.90;;;;;;4874722;29;20533;-81
2023/05/25 05:43:51;;;;;;;22.30;9.60;;;11.20;99.90;;;;;;4889476;29;20064;-81
2023/05/25 05:46:31;;;;;;;17.43;9.63;;;11.30;99.90;;;;;;4857831;29;20061;-80
2023/05/25 05:48:58;;;;;;;18.43;9.47;;;11.40;99.90;;;;;;4842285;29;20052;-80
2023/05/25 05:51:32;;;;;;;15.23;9.30;;;11.50;99.90;;;;;;4872561;29;20047;-82
2023/05/25 05:54:03;;;;;;;21.87;9.40;;;11.70;99.90;;;;;;4842621;29;20040;-79
2023/05/25 05:56:36;;;;;;;19.57;9.37;;;11.80;99.90;;;;;;4859065;29;20072;-80
2023/05/25 05:59:10;;;;;;;17.17;8.23;;;11.80;99.90;;;;;;4857620;29;20053;-81
2023/05/25 06:01:50;;;;;;;21.73;8.60;;;11.90;99.90;;;;;;4872877;29;20053;-83
2023/05/25 06:04:18;;;;;;;19.00;9.03;;;12.00;99.90;;;;;;4847691;29;20045;-79
2023/05/25 06:06:44;;;;;;;16.83;8.23;;;12.20;99.90;;;;;;4873153;29;20045;-80
2023/05/25 06:09:16;;;;;;;12.37;7.57;;;12.30;99.90;;;;;;4858006;29;20045;-85
2023/05/25 06:11:48;;;;;;;;;;;12.30;99.90;;;;;;4865030;29;20060;-80
2023/05/25 06:14:14;;;;;;;16.02;8.63;;;12.30;99.90;;;;;;4864117;29;19920;-80
2023/05/25 06:16:42;;;;;;;17.87;9.20;;;12.30;99.90;;;;;;4852184;29;20536;-81
2023/05/25 06:19:13;;;;;;;15.03;9.27;;;12.30;99.90;;;;;;4867815;29;20056;-80
2023/05/25 06:21:52;;;;;;;19.53;9.33;;;12.40;99.90;;;;;;4867101;29;20057;-82
2023/05/25 06:24:30;;;;;;;18.52;8.57;;;12.30;99.90;;;;;;4869464;29;20469;-79
2023/05/25 06:27:02;;;;;;;18.85;8.98;;;12.30;99.90;;;;;;4870502;29;20049;-78
2023/05/25 06:29:28;;;;;;;15.27;8.37;;;12.30;99.90;;;;;;4877834;29;20124;-83
2023/05/25 06:31:54;;;;;;;17.13;8.27;;;12.20;99.90;;;;;;4857915;29;20051;-81
2023/05/25 06:34:24;;;;;;;16.92;7.82;;;12.30;99.90;;;;;;4867320;29;20043;-83
2023/05/25 06:37:06;;;;;;;15.23;6.40;;;12.40;99.90;;;;;;4882483;29;20136;-80
2023/05/25 06:39:52;;;;;;;18.63;6.82;;;12.50;99.90;;;;;;4870161;29;20061;-80
2023/05/25 06:42:25;;;;;;;18.27;6.72;;;12.70;99.90;;;;;;4888551;29;20065;-84
2023/05/25 06:44:51;;;;;;;16.25;5.53;;;12.80;99.90;;;;;;4863152;29;20053;-80
2023/05/25 06:47:16;;;;;;;17.63;5.80;;;12.80;99.90;;;;;;4863912;29;20426;-79
2023/05/25 06:49:42;;;;;;;12.82;4.82;;;12.80;99.90;;;;;;4863922;29;20085;-79
2023/05/25 06:52:20;;;;;;;13.00;4.93;;;12.80;99.90;;;;;;4873688;29;20058;-80
2023/05/25 06:54:50;;;;;;;17.30;5.15;;;12.70;99.90;;;;;;4875530;29;20412;-80
2023/05/25 06:57:21;;;;;;;12.32;5.13;;;12.70;99.90;;;;;;4897511;29;20075;-79
2023/05/25 06:59:53;;;;;;;13.00;5.15;;;12.70;99.90;;;;;;4868714;29;20063;-85
2023/05/25 07:02:25;;;;;;;15.90;5.70;;;12.70;99.90;;;;;;4863675;29;20070;-81
2023/05/25 07:04:51;;;;;;;13.23;4.75;;;12.80;99.90;;;;;;4873884;29;20048;-83
2023/05/25 07:07:21;;;;;;;11.80;4.47;;;12.90;99.90;;;;;;4867732;29;20045;-82
2023/05/25 07:09:50;;;;;;;12.93;3.90;;;12.90;99.90;;;;;;4892225;29;20044;-84
2023/05/25 07:12:18;;;;;;;14.38;4.28;;;13.00;99.90;;;;;;4855459;29;20041;-82
2023/05/25 07:15:06;;;;;;;18.83;4.78;;;13.00;99.90;;;;;;4870471;29;20052;-82
2023/05/25 07:17:32;;;;;;;15.57;4.50;;;13.00;99.90;;;;;;4865372;29;20151;-81
2023/05/25 07:20:13;;;;;;;13.93;4.22;;;13.10;99.90;;;;;;4864213;29;20371;-82
2023/05/25 07:22:49;;;;;;;16.83;4.90;;;13.30;99.90;;;;;;4851198;29;20138;-84
2023/05/25 07:25:15;;;;;;;15.70;5.05;;;13.50;99.90;;;;;;4873447;29;20451;-79
2023/05/25 07:27:41;;;;;;;13.63;5.03;;;13.60;99.90;;;;;;4875094;29;20096;-80
2023/05/25 07:30:13;;;;;;;11.75;4.20;;;13.80;99.90;;;;;;4881452;29;20060;-82
2023/05/25 07:32:39;;;;;;;15.80;4.70;;;14.00;99.90;;;;;;4866598;29;20044;-81
2023/05/25 07:35:08;;;;;;;14.00;4.68;;;14.00;99.90;;;;;;4881426;29;20524;-82
2023/05/25 07:37:37;;;;;;;16.92;4.93;;;13.80;99.90;;;;;;4869595;29;20052;-84
2023/05/25 07:40:04;;;;;;;13.93;4.38;;;13.60;99.90;;;;;;4869711;29;20059;-80
2023/05/25 07:42:39;;;;;;;14.50;4.38;;;13.60;99.90;;;;;;4850551;29;20463;-85
2023/05/25 07:45:11;;;;;;;13.52;4.85;;;13.70;99.90;;;;;;4866489;29;20109;-81
2023/05/25 07:47:40;;;;;;;12.98;5.03;;;13.80;99.90;;;;;;4885231;29;20053;-81
2023/05/25 07:50:06;;;;;;;19.20;5.10;;;13.90;99.90;;;;;;4853513;29;20093;-80
2023/05/25 07:52:32;;;;;;;16.63;4.35;;;14.00;99.90;;;;;;4846964;29;20041;-81
2023/05/25 07:54:58;;;;;;;14.18;4.80;;;14.00;99.90;;;;;;4831960;29;20415;-82
2023/05/25 07:57:24;;;;;;;16.92;5.43;;;14.10;99.90;;;;;;4869341;29;20256;-81
2023/05/25 07:59:50;;;;;;;15.25;4.85;;;14.20;99.90;;;;;;4867424;29;20067;-79
2023/05/25 08:02:20;;;;;;;16.50;4.80;;;14.20;99.90;;;;;;4880059;29;20501;-81
2023/05/25 08:04:46;;;;;;;15.18;4.95;;;14.50;99.90;;;;;;4853757;29;20063;-78
2023/05/25 08:07:17;;;;;;;12.98;4.65;;;14.60;99.90;;;;;;4884397;29;20127;-80
2023/05/25 08:09:43;;;;;;;21.38;5.13;;;14.60;99.90;;;;;;4880451;29;20040;-81
2023/05/25 08:12:09;;;;;;;16.70;5.38;;;14.50;99.90;;;;;;4859678;29;20548;-80
2023/05/25 08:14:35;;;;;;;15.75;5.15;;;14.30;99.90;;;;;;4847493;29;20045;-80
2023/05/25 08:17:01;;;;;;;12.95;4.57;;;14.40;99.90;;;;;;4877778;29;20053;-81
2023/05/25 08:19:30;;;;;;;17.80;5.45;;;14.50;99.90;;;;;;4847323;29;20045;-83
2023/05/25 08:21:58;;;;;;;16.10;5.80;;;14.90;99.90;;;;;;4846974;29;20084;-81
2023/05/25 08:24:24;;;;;;;15.93;5.18;;;14.80;99.90;;;;;;4846764;29;20041;-80
2023/05/25 08:26:50;;;;;;;18.98;5.28;;;14.70;99.90;;;;;;4843432;29;20037;-82
2023/05/25 08:29:16;;;;;;;14.38;5.10;;;14.50;99.90;;;;;;4836598;29;20040;-80
2023/05/25 08:31:48;;;;;;;17.73;5.13;;;14.70;99.90;;;;;;4883680;29;20544;-80
2023/05/25 08:34:15;;;;;;;20.73;5.68;;;14.80;99.90;;;;;;4869425;29;20045;-81
2023/05/25 08:36:41;;;;;;;21.42;5.45;;;14.50;99.90;;;;;;4877678;29;20048;-82
2023/05/25 08:39:17;;;;;;;18.80;5.53;;;14.20;99.90;;;;;;4880845;29;20048;-81
2023/05/25 08:41:44;;;;;;;16.52;5.53;;;14.00;99.90;;;;;;4861479;29;20051;-80
2023/05/25 08:44:14;;;;;;;18.42;5.40;;;13.90;99.90;;;;;;4861653;29;20056;-79
2023/05/25 08:46:40;;;;;;;17.48;4.95;;;13.90;99.90;;;;;;4853424;29;20065;-79
2023/05/25 08:49:20;;;;;;;19.13;5.78;;;14.20;99.90;;;;;;4828256;29;20048;-83
2023/05/25 08:51:52;;;;;;;20.98;6.20;;;14.40;99.90;;;;;;4855045;29;20041;-84
2023/05/25 08:54:26;;;;;;;17.13;5.30;;;14.50;99.90;;;;;;4861724;29;20059;-84
2023/05/25 08:57:01;;;;;;;18.02;5.43;;;14.60;99.90;;;;;;4846031;29;20044;-85
2023/05/25 08:59:59;;;;;;;21.25;5.97;;;14.80;99.90;;;;;;4845945;29;20386;-84
2023/05/25 09:02:34;;;;;;;17.75;5.88;;;15.00;99.90;;;;;;4845294;29;20061;-83
2023/05/25 09:05:12;;;;;;;13.90;4.97;;;14.90;99.90;;;;;;4838581;29;20045;-85
2023/05/25 09:07:41;;;;;;;17.63;5.75;;;14.80;99.90;;;;;;4849762;29;20053;-85
2023/05/25 09:10:11;;;;;;;18.63;5.90;;;14.60;99.90;;;;;;4829570;29;20052;-84
2023/05/25 09:12:37;;;;;;;21.65;5.55;;;14.60;99.90;;;;;;4861027;29;20049;-84
2023/05/25 09:15:22;;;;;;;21.48;6.07;;;14.80;99.90;;;;;;4858198;29;20030;-85
2023/05/25 09:17:48;;;;;;;22.73;6.40;;;14.90;99.90;;;;;;4827338;29;20120;-86
2023/05/25 09:20:35;;;;;;;23.77;5.78;;;15.00;99.90;;;;;;4850252;29;20466;-84
2023/05/25 09:23:02;;;;;;;23.02;6.70;;;15.20;99.90;;;;;;4825327;29;20053;-83
2023/05/25 09:25:28;;;;;;;20.98;5.38;;;15.10;99.90;;;;;;4850615;29;20037;-85
2023/05/25 09:27:57;;;;;;;17.85;5.78;;;15.00;99.90;;;;;;4843676;29;20045;-85
2023/05/25 09:30:31;;;;;;;18.20;4.90;;;14.90;99.90;;;;;;4845634;29;20049;-84
2023/05/25 09:33:22;;;;;;;20.20;5.68;;;14.90;99.90;;;;;;4857424;29;20125;-84
2023/05/25 09:35:56;;;;;;;18.63;6.00;;;14.80;99.90;;;;;;4829349;29;20064;-84
2023/05/25 09:38:22;;;;;;;22.02;5.93;;;14.70;99.90;;;;;;4830898;29;20049;-85
2023/05/25 09:40:49;;;;;;;27.52;6.18;;;14.70;99.90;;;;;;4836363;29;20045;-85
2023/05/25 09:43:15;;;;;;;17.90;4.82;;;14.70;99.90;;;;;;4812521;29;20599;-85
2023/05/25 09:45:41;;;;;;;22.38;5.95;;;14.90;99.90;;;;;;4827323;29;20125;-84
2023/05/25 09:48:16;;;;;;;21.73;5.05;;;14.90;99.90;;;;;;4864635;29;20055;-84
2023/05/25 09:50:47;;;;;;;23.63;6.60;;;14.70;99.90;;;;;;4881999;29;20049;-84
2023/05/25 09:53:13;;;;;;;21.25;5.80;;;14.60;99.90;;;;;;4893319;29;20053;-85
2023/05/25 09:55:39;;;;;;;20.27;5.75;;;14.90;99.90;;;;;;4879005;29;20052;-85
2023/05/25 09:58:12;;;;;;;18.17;5.57;;;15.00;99.90;;;;;;4870616;29;20049;-85
2023/05/25 10:00:46;;;;;;;21.63;6.15;;;14.90;99.90;;;;;;4877089;29;20077;-84
2023/05/25 10:03:15;;;;;;;21.65;5.53;;;14.80;99.90;;;;;;4880183;29;20441;-84
2023/05/25 10:05:40;;;;;;;19.65;5.25;;;14.80;99.90;;;;;;4883006;29;20893;-85
2023/05/25 10:08:08;;;;;;;23.73;6.43;;;14.60;99.90;;;;;;4883629;29;20048;-83
2023/05/25 10:10:36;;;;;;;22.27;6.20;;;14.50;99.90;;;;;;4898683;29;20053;-86
2023/05/25 10:13:04;;;;;;;21.02;5.90;;;14.80;99.90;;;;;;4867942;29;20091;-86
2023/05/25 10:15:36;;;;;;;20.05;5.10;;;14.80;99.90;;;;;;4881885;29;20108;-84
2023/05/25 10:18:08;;;;;;;17.88;5.72;;;14.80;99.90;;;;;;4890051;29;20526;-85
2023/05/25 10:20:35;;;;;;;22.00;5.25;;;14.80;99.90;;;;;;4882643;29;20436;-86
2023/05/25 10:23:23;;;;;;;21.50;5.20;;;14.70;99.90;;;;;;4860638;29;20132;-85
2023/05/25 10:25:59;;;;;;;19.52;5.03;;;14.60;99.90;;;;;;4845061;29;20509;-84
2023/05/25 10:28:34;;;;;;;18.80;5.22;;;14.80;99.90;;;;;;4845547;29;20049;-85
2023/05/25 10:31:26;;;;;;;20.50;5.30;;;15.20;99.90;;;;;;4878539;29;20054;-84
2023/05/25 10:33:53;;;;;;;20.80;5.72;;;15.30;99.90;;;;;;4880313;29;20089;-85
2023/05/25 10:36:20;;;;;;;20.27;6.07;;;15.10;99.90;;;;;;4882181;29;20044;-85
2023/05/25 10:38:47;;;;;;;21.65;5.57;;;15.20;99.90;;;;;;4898261;29;20128;-84
2023/05/25 10:41:14;;;;;;;18.10;5.15;;;15.40;99.90;;;;;;4882635;29;20075;-84
2023/05/25 10:43:55;;;;;;;20.10;5.47;;;15.30;99.90;;;;;;4883388;29;20048;-83
2023/05/25 10:46:24;;;;;;;20.67;5.80;;;15.00;99.90;;;;;;4877304;29;20769;-85
2023/05/25 10:48:59;;;;;;;19.05;4.82;;;15.10;99.90;;;;;;4848354;29;20055;-85
2023/05/25 10:51:40;;;;;;;16.75;4.88;;;15.20;99.90;;;;;;4863452;29;20045;-84
2023/05/25 10:54:09;;;;;;;17.45;5.72;;;15.10;99.90;;;;;;4858855;29;20128;-84
2023/05/25 10:56:35;;;;;;;17.90;5.28;;;14.90;99.90;;;;;;4838475;29;20520;-85
2023/05/25 10:59:00;;;;;;;16.45;5.63;;;15.00;99.90;;;;;;4840248;29;20053;-86
2023/05/25 11:01:26;;;;;;;16.20;5.20;;;15.20;99.90;;;;;;4846623;29;20049;-85
2023/05/25 11:03:54;;;;;;;16.85;5.25;;;15.20;99.90;;;;;;4830230;29;20102;-84
2023/05/25 11:06:21;;;;;;;17.45;5.40;;;15.10;99.90;;;;;;4847846;29;20075;-83
2023/05/25 11:08:53;;;;;;;21.80;5.70;;;14.90;99.90;;;;;;4824780;29;20041;-83
2023/05/25 11:11:19;;;;;;;;;;;14.90;99.90;;;;;;4819565;29;20064;-80
2023/05/25 11:13:49;;;;;;;15.90;5.40;;;14.90;99.90;;;;;;4857304;29;20372;-82
2023/05/25 11:16:18;;;;;;;20.75;5.65;;;14.80;99.90;;;;;;4813997;29;20734;-80
2023/05/25 11:19:12;;;;;;;17.27;5.35;;;14.70;99.90;;;;;;4829177;29;20128;-82
2023/05/25 11:21:43;;;;;;;22.98;6.28;;;14.90;99.90;;;;;;4847647;29;20055;-82
2023/05/25 11:24:14;;;;;;;17.90;5.45;;;15.30;99.90;;;;;;4862577;29;20057;-82
2023/05/25 11:27:04;;;;;;;18.88;5.80;;;15.50;99.90;;;;;;4863315;29;20053;-81
2023/05/25 11:29:31;;;;;;;24.70;6.43;;;15.40;99.90;;;;;;4839595;29;20076;-81
2023/05/25 11:31:59;;;;;;;23.90;6.22;;;15.30;99.90;;;;;;4812586;29;20045;-81
2023/05/25 11:34:36;;;;;;;23.20;6.35;;;15.40;99.90;;;;;;4847903;29;20377;-84
2023/05/25 11:37:03;;;;;;;18.35;5.35;;;15.30;99.90;;;;;;4839129;29;20120;-82
2023/05/25 11:39:30;;;;;;;18.30;5.32;;;15.50;99.90;;;;;;4862508;29;20048;-82
2023/05/25 11:42:05;;;;;;;20.23;5.45;;;15.80;99.90;;;;;;4836224;29;20041;-85
2023/05/25 11:44:47;;;;;;;21.58;5.80;;;16.10;99.90;;;;;;4842476;29;20053;-84
2023/05/25 11:47:17;;;;;;;19.50;5.55;;;15.90;99.90;;;;;;4847610;29;20099;-85
2023/05/25 11:49:45;;;;;;;19.17;5.43;;;16.10;99.90;;;;;;4862936;29;20052;-85
2023/05/25 11:52:16;;;;;;;17.27;5.65;;;16.20;99.90;;;;;;4871519;29;20188;-80
2023/05/25 11:54:52;;;;;;;15.25;5.80;;;16.10;99.90;;;;;;4893900;29;20127;-86
2023/05/25 11:57:23;;;;;;;20.27;5.70;;;16.10;99.90;;;;;;4878517;29;20395;-82
2023/05/25 12:00:05;;;;;;;21.77;6.13;;;16.10;99.90;;;;;;4874276;29;20041;-80
2023/05/25 12:02:39;;;;;;;19.83;6.30;;;16.10;99.90;;;;;;4892091;29;20048;-81
2023/05/25 12:05:06;;;;;;;22.23;5.90;;;15.90;99.90;;;;;;4888899;29;20048;-80
2023/05/25 12:07:42;;;;;;;19.17;6.30;;;15.90;99.90;;;;;;4862124;29;20083;-81
2023/05/25 12:10:14;;;;;;;18.25;5.63;;;15.90;99.90;;;;;;4862295;29;20055;-81
2023/05/25 12:12:46;;;;;;;18.27;5.75;;;15.80;99.90;;;;;;4880803;29;20482;-80
2023/05/25 12:15:20;;;;;;;18.77;6.32;;;15.80;99.90;;;;;;4880722;29;20048;-82
2023/05/25 12:17:52;;;;;;;22.48;6.32;;;15.90;99.90;;;;;;4865756;29;20048;-83
2023/05/25 12:20:24;;;;;;;12.95;5.18;;;16.00;99.90;;;;;;4875846;29;20059;-84
2023/05/25 12:22:52;;;;;;;18.65;6.00;;;16.10;99.90;;;;;;4867059;29;20108;-80
2023/05/25 12:25:23;;;;;;;14.63;5.25;;;16.10;99.90;;;;;;4858402;29;20057;-84
2023/05/25 12:28:12;;;;;;;17.10;5.53;;;16.10;99.90;;;;;;4857564;29;20037;-84
2023/05/25 12:30:40;;;;;;;19.23;5.63;;;16.20;99.90;;;;;;4857340;29;20044;-80
2023/05/25 12:33:06;;;;;;;16.65;5.75;;;16.10;99.90;;;;;;4848486;29;20049;-81
2023/05/25 12:35:49;;;;;;;18.83;5.90;;;16.10;99.90;;;;;;4852782;29;20060;-86
2023/05/25 12:38:20;;;;;;;18.13;5.80;;;16.30;99.90;;;;;;4869960;29;20056;-85
2023/05/25 12:41:05;;;;;;;17.77;5.40;;;16.20;99.90;;;;;;4879608;29;20173;-82
2023/05/25 12:43:45;;;;;;;20.10;5.82;;;16.20;99.90;;;;;;4889854;29;20049;-80
2023/05/25 12:46:22;;;;;;;19.77;6.03;;;15.90;99.90;;;;;;4847406;29;20065;-81
2023/05/25 12:48:52;;;;;;;18.02;5.70;;;16.00;99.90;;;;;;4872660;29;20127;-82
2023/05/25 12:51:25;;;;;;;21.80;6.28;;;16.00;99.90;;;;;;4853035;29;20049;-84
2023/05/25 12:53:53;;;;;;;16.08;5.70;;;15.80;99.90;;;;;;4851837;29;20060;-83
2023/05/25 12:56:22;;;;;;;23.52;6.97;;;15.70;99.90;;;;;;4846977;29;20141;-84
2023/05/25 12:58:48;;;;;;;18.05;6.32;;;16.10;99.90;;;;;;4844407;29;20088;-84
2023/05/25 13:01:14;;;;;;;22.63;6.55;;;15.90;99.90;;;;;;4849966;29;20049;-83
2023/05/25 13:03:43;;;;;;;25.00;6.97;;;15.80;99.90;;;;;;4849577;29;20584;-84
2023/05/25 13:06:12;;;;;;;23.80;7.05;;;15.90;99.90;;;;;;4866212;29;20056;-81
2023/05/25 13:08:38;;;;;;;23.45;6.22;;;15.60;99.90;;;;;;4879637;29;20493;-81
2023/05/25 13:11:04;;;;;;;18.63;6.63;;;15.70;99.90;;;;;;4864684;29;20051;-83
2023/05/25 13:13:30;;;;;;;22.02;5.60;;;16.00;99.90;;;;;;4844289;29;20048;-80
2023/05/25 13:16:01;;;;;;;15.85;5.32;;;16.20;99.90;;;;;;4874566;29;20075;-80